This is the latest recevied weather packets stored in our database for station/object K6LCM-13. If no packets are shown the sender has not sent any weather packets the latest 10 day(s).
| Time | Temp. | Humidity | Pressure | Rain* | Wind** | Luminosity | Snow |
|---|---|---|---|---|---|---|---|
| 1777671789 | 17.78° C | 81% | 1014.1 hPa | 0 mm | - | - | - |
| 1777671250 | 17.78° C | 80% | 1014.1 hPa | 0 mm | - | - | - |
| 1777670709 | 18.33° C | 78% | 1014.1 hPa | 0 mm | - | - | - |
| 1777670170 | 18.33° C | 78% | 1014.2 hPa | 0 mm | - | - | - |
| 1777669629 | 18.33° C | 77% | 1014.3 hPa | 0 mm | - | - | - |
| 1777669089 | 18.33° C | 78% | 1014.3 hPa | 0 mm | - | - | - |
| 1777668549 | 17.78° C | 79% | 1014.3 hPa | 0 mm | - | - | - |
| 1777668010 | 17.78° C | 79% | 1014.2 hPa | 0 mm | - | - | - |
| 1777666930 | 17.78° C | 79% | 1014.3 hPa | 0 mm | - | - | - |
| 1777666390 | 17.78° C | 78% | 1014.3 hPa | 0 mm | - | - | - |
| 1777665849 | 17.78° C | 79% | 1014.4 hPa | 0 mm | - | - | - |
| 1777665310 | 18.33° C | 78% | 1014.5 hPa | 0 mm | - | - | - |
| 1777664769 | 18.33° C | 79% | 1014.6 hPa | 0 mm | - | - | - |
| 1777663637 | 17.78° C | 81% | 1014.8 hPa | 0 mm | - | - | - |
| 1777663097 | 17.22° C | 81% | 1014.8 hPa | 0 mm | - | - | - |
| 1777662557 | 17.22° C | 81% | 1014.8 hPa | 0 mm | - | - | - |
| 1777662016 | 17.22° C | 83% | 1015 hPa | 0 mm | - | - | - |
| 1777661477 | 17.22° C | 83% | 1015.1 hPa | 0 mm | - | - | - |
| 1777660397 | 16.11° C | 86% | 1015.6 hPa | 0 mm | - | - | - |
| 1777659856 | 15.56° C | 87% | 1015.6 hPa | 0 mm | - | - | - |
| 1777659317 | 15.56° C | 87% | 1015.7 hPa | 0 mm | - | - | - |
| 1777658777 | 15.56° C | 87% | 1015.6 hPa | 0 mm | - | - | - |
| 1777658237 | 15.56° C | 89% | 1015.4 hPa | 0 mm | - | - | - |
| 1777657697 | 15.56° C | 89% | 1015.5 hPa | 0 mm | - | - | - |
| 1777657157 | 15.56° C | 88% | 1015.6 hPa | 0 mm | - | - | - |
* Rain latest hour (hover to see other rain measurements)
** Current wind speed in m/s (hover to see current wind gust speed)